createdAt,value
2016-04-16T00:00:42.977Z,6.54
2016-04-16T00:01:41.043Z,6.55
2016-04-16T00:02:41.639Z,6.55
2016-04-16T00:04:41.739Z,6.58
2016-04-16T00:05:41.132Z,6.55
2016-04-16T00:06:41.025Z,6.51
2016-04-16T00:07:40.996Z,6.55
2016-04-16T00:08:40.983Z,6.56
2016-04-16T00:09:42.486Z,6.56
2016-04-16T00:10:40.988Z,6.58
2016-04-16T00:11:40.976Z,6.52
2016-04-16T00:12:41.572Z,6.59
2016-04-16T00:13:40.965Z,6.66
2016-04-16T00:14:40.953Z,6.58
2016-04-16T00:15:40.956Z,6.61
2016-04-16T00:16:40.943Z,6.59
2016-04-16T00:17:40.930Z,6.59
2016-04-16T00:18:40.948Z,6.69
2016-04-16T00:19:40.920Z,6.71
2016-04-16T00:20:40.906Z,6.69
2016-04-16T00:21:40.893Z,6.67
2016-04-16T00:22:40.896Z,6.7
2016-04-16T00:23:40.899Z,6.69
2016-04-16T00:24:40.871Z,6.59
2016-04-16T00:25:40.889Z,6.67
2016-04-16T00:26:40.876Z,6.7
2016-04-16T00:27:40.863Z,6.62
2016-04-16T00:28:40.866Z,6.7
2016-04-16T00:29:40.837Z,6.73
2016-04-16T00:30:40.839Z,6.71
2016-04-16T00:31:40.842Z,6.71
2016-04-16T00:32:40.829Z,6.69
2016-04-16T00:33:40.800Z,6.71
2016-04-16T00:34:40.819Z,6.74
2016-04-16T00:35:40.791Z,6.73
2016-04-16T00:36:40.794Z,6.76
2016-04-16T00:37:40.780Z,6.73
2016-04-16T00:38:40.783Z,6.7
2016-04-16T00:39:40.801Z,6.69
2016-04-16T00:40:40.773Z,6.71
2016-04-16T00:41:40.744Z,6.7
2016-04-16T00:42:40.762Z,6.69
2016-04-16T00:43:40.734Z,6.67
2016-04-16T00:44:40.736Z,6.71
2016-04-16T00:45:40.739Z,6.7
2016-04-16T00:46:40.726Z,6.74
2016-04-16T00:47:40.713Z,6.67
2016-04-16T00:48:40.716Z,6.67
2016-04-16T00:49:40.704Z,6.7
2016-04-16T00:50:40.706Z,6.69
2016-04-16T00:51:40.678Z,6.69
2016-04-16T00:52:40.695Z,6.62
2016-04-16T00:53:40.668Z,6.64
2016-04-16T00:54:40.670Z,6.58
2016-04-16T00:55:40.673Z,6.71
2016-04-16T00:56:40.645Z,6.64
2016-04-16T00:57:40.631Z,6.66
2016-04-16T00:58:40.634Z,6.64
2016-04-16T00:59:40.636Z,6.71
2016-04-16T01:00:40.623Z,6.58
2016-04-16T01:01:40.625Z,6.66
2016-04-16T01:02:40.457Z,6.67
2016-04-16T01:03:40.616Z,6.62
2016-04-16T01:04:40.588Z,6.67
2016-04-16T01:05:40.606Z,6.62
2016-04-16T01:06:40.577Z,6.69
2016-04-16T01:07:40.580Z,6.66
2016-04-16T01:08:40.551Z,6.7
2016-04-16T01:09:40.569Z,6.76
2016-04-16T01:10:40.541Z,6.73
2016-04-16T01:11:41.481Z,6.76
2016-04-16T01:12:40.530Z,6.74
2016-04-16T01:13:40.548Z,6.71
2016-04-16T01:14:40.615Z,6.79
2016-04-16T01:15:40.554Z,6.74
2016-04-16T01:16:40.510Z,6.8
2016-04-16T01:17:40.512Z,6.74
2016-04-16T01:18:42.281Z,6.76
2016-04-16T01:19:40.862Z,6.69
2016-04-16T01:21:40.462Z,6.77
2016-04-16T01:22:41.917Z,6.76
2016-04-16T01:23:41.482Z,6.77
2016-04-16T01:24:40.469Z,6.79
2016-04-16T01:25:40.440Z,6.81
2016-04-16T01:26:40.458Z,6.79
2016-04-16T01:27:40.414Z,6.79
2016-04-16T01:28:41.433Z,6.8
2016-04-16T01:29:41.108Z,6.85
2016-04-16T01:30:40.485Z,6.84
2016-04-16T01:31:41.050Z,6.89
2016-04-16T01:32:40.413Z,6.88
2016-04-16T01:33:40.383Z,6.91
2016-04-16T01:34:40.386Z,6.91
2016-04-16T01:35:40.374Z,6.85
2016-04-16T01:36:40.376Z,6.84
2016-04-16T01:37:40.394Z,6.92
2016-04-16T01:38:40.350Z,6.87
2016-04-16T01:39:40.337Z,6.97
2016-04-16T01:40:40.340Z,6.92
2016-04-16T01:41:40.327Z,6.84
2016-04-16T01:42:40.345Z,6.85
2016-04-16T01:43:40.317Z,6.94
2016-04-16T01:44:40.335Z,6.92
2016-04-16T01:45:40.307Z,6.95
2016-04-16T01:46:40.310Z,7.03
2016-04-16T01:47:40.297Z,6.95
2016-04-16T01:48:40.299Z,6.92
2016-04-16T01:49:40.271Z,6.94
2016-04-16T01:50:40.289Z,7.05
2016-04-16T01:51:40.260Z,6.95
2016-04-16T01:52:40.262Z,6.98
2016-04-16T01:53:40.265Z,6.92
2016-04-16T01:54:40.081Z,6.97
2016-04-16T01:55:40.240Z,6.95
2016-04-16T01:56:40.212Z,6.97
2016-04-16T01:57:40.230Z,6.92
2016-04-16T01:58:40.201Z,6.97
2016-04-16T01:59:40.219Z,6.98
2016-04-16T02:00:40.191Z,7.02
2016-04-16T02:01:40.193Z,7.09
2016-04-16T02:02:40.180Z,6.98
2016-04-16T02:03:40.187Z,6.97
2016-04-16T02:04:40.377Z,7.07
2016-04-16T02:05:40.176Z,7.1
2016-04-16T02:06:40.164Z,7.1
2016-04-16T02:07:40.151Z,7.12
2016-04-16T02:08:40.153Z,7.06
2016-04-16T02:09:40.156Z,7.06
2016-04-16T02:10:40.144Z,7.09
2016-04-16T02:11:40.131Z,7.09
2016-04-16T02:12:40.103Z,7.06
2016-04-16T02:13:40.120Z,7.09
2016-04-16T02:14:43.092Z,6.98
2016-04-16T02:15:43.313Z,7.1
2016-04-16T02:16:43.300Z,7.07
2016-04-16T02:17:40.521Z,7.1
2016-04-16T02:18:40.086Z,7.12
2016-04-16T02:19:40.074Z,6.97
2016-04-16T02:20:40.061Z,7.1
2016-04-16T02:21:40.079Z,7.1
2016-04-16T02:22:40.053Z,7.09
2016-04-16T02:23:40.040Z,7.13
2016-04-16T02:24:40.043Z,7.12
2016-04-16T02:25:40.029Z,7.09
2016-04-16T02:26:40.032Z,7.15
2016-04-16T02:27:41.738Z,7.06
2016-04-16T02:28:41.084Z,7.1
2016-04-16T02:29:39.994Z,7.09
2016-04-16T02:30:41.028Z,7.1
2016-04-16T02:31:40.906Z,7.02
2016-04-16T02:32:40.251Z,7.07
2016-04-16T02:33:39.989Z,7.07
2016-04-16T02:34:39.975Z,7.07
2016-04-16T02:35:39.947Z,7.09
2016-04-16T02:36:39.950Z,7.06
2016-04-16T02:37:55.484Z,6.95
2016-04-16T02:38:40.440Z,6.99
2016-04-16T02:39:40.427Z,6.97
2016-04-16T02:40:40.492Z,6.98
2016-04-16T02:41:40.588Z,6.99
2016-04-16T02:42:40.466Z,6.95
2016-04-16T02:43:40.077Z,6.95
2016-04-16T02:44:39.949Z,7.02
2016-04-16T02:45:39.980Z,6.95
2016-04-16T02:46:40.025Z,6.95
2016-04-16T02:47:40.289Z,6.97
2016-04-16T02:48:40.084Z,6.98
2016-04-16T02:49:41.197Z,6.95
2016-04-16T02:50:40.200Z,6.98
2016-04-16T02:51:40.124Z,6.95
2016-04-16T02:52:40.126Z,6.95
2016-04-16T02:53:40.114Z,6.94
2016-04-16T02:54:39.388Z,6.85
2016-04-16T02:55:40.146Z,6.8
2016-04-16T02:56:40.108Z,6.88
2016-04-16T02:57:40.131Z,6.79
2016-04-16T02:58:40.124Z,6.81
2016-04-16T02:59:40.113Z,6.81
2016-04-16T03:00:40.118Z,6.81
2016-04-16T03:01:40.122Z,6.79
2016-04-16T03:02:40.112Z,6.88
2016-04-16T03:03:40.101Z,6.79
2016-04-16T03:04:40.104Z,6.87
2016-04-16T03:05:40.248Z,6.85
2016-04-16T03:06:40.080Z,6.87
2016-04-16T03:07:40.084Z,6.87
2016-04-16T03:08:40.071Z,6.92
2016-04-16T03:09:40.058Z,6.88
2016-04-16T03:10:40.061Z,6.85
2016-04-16T03:11:40.065Z,6.85
2016-04-16T03:12:40.053Z,6.84
2016-04-16T03:13:40.040Z,6.94
2016-04-16T03:14:39.870Z,6.91
2016-04-16T03:15:40.029Z,6.84
2016-04-16T03:16:40.204Z,6.79
2016-04-16T03:17:40.003Z,6.84
2016-04-16T03:18:40.006Z,6.87
2016-04-16T03:19:40.196Z,6.94
2016-04-16T03:20:40.184Z,6.92
2016-04-16T03:21:39.999Z,6.97
2016-04-16T03:22:39.970Z,6.87
2016-04-16T03:23:39.972Z,7.03
2016-04-16T03:24:39.960Z,6.97
2016-04-16T03:25:39.962Z,6.95
2016-04-16T03:26:39.949Z,6.99
2016-04-16T03:27:39.952Z,6.95
2016-04-16T03:28:39.955Z,7.02
2016-04-16T03:29:39.942Z,6.99
2016-04-16T03:30:39.913Z,6.98
2016-04-16T03:31:39.916Z,7.05
2016-04-16T03:32:39.904Z,7.09
2016-04-16T03:33:39.890Z,7.06
2016-04-16T03:34:39.877Z,7.07
2016-04-16T03:35:40.411Z,7.05
2016-04-16T03:36:39.867Z,6.98
2016-04-16T03:37:39.870Z,7.03
2016-04-16T03:38:39.873Z,6.95
2016-04-16T03:39:40.062Z,6.94
2016-04-16T03:40:39.846Z,6.95
2016-04-16T03:41:39.849Z,6.98
2016-04-16T03:42:39.836Z,7.02
2016-04-16T03:43:39.840Z,6.94
2016-04-16T03:44:39.826Z,6.99
2016-04-16T03:45:39.829Z,6.98
2016-04-16T03:46:39.862Z,6.99
2016-04-16T03:47:41.834Z,6.91
2016-04-16T03:48:40.306Z,6.94
2016-04-16T03:49:40.699Z,6.92
2016-04-16T03:50:40.467Z,6.95
2016-04-16T03:51:39.766Z,6.87
2016-04-16T03:52:42.770Z,6.8
2016-04-16T03:53:39.803Z,6.88
2016-04-16T03:54:39.791Z,6.87
2016-04-16T04:10:06.753Z,6.74
2016-04-16T04:10:45.631Z,6.73
2016-04-16T04:11:21.368Z,6.7
2016-04-16T04:14:29.703Z,6.67
2016-04-16T04:15:35.956Z,6.71
2016-04-16T04:17:01.068Z,6.59
2016-04-16T04:17:35.945Z,6.7
2016-04-16T04:18:29.683Z,6.7
2016-04-16T04:19:42.405Z,6.7
2016-04-16T04:21:32.411Z,6.71
2016-04-16T04:24:07.572Z,6.71
2016-04-16T04:24:39.980Z,6.7
2016-04-16T04:26:57.907Z,6.79
2016-04-16T04:27:43.754Z,6.79
2016-04-16T06:24:38.603Z,15.62
2016-04-16T06:25:38.590Z,15.62
2016-04-16T06:26:38.609Z,15.49
2016-04-16T06:27:38.611Z,15.59
2016-04-16T06:28:38.629Z,15.5
2016-04-16T06:29:38.617Z,15.44
2016-04-16T06:30:38.635Z,15.36
2016-04-16T06:31:38.622Z,15.36
2016-04-16T06:32:38.640Z,15.39
2016-04-16T06:33:38.643Z,15.34
2016-04-16T06:34:38.630Z,15.29
2016-04-16T06:35:38.632Z,15.2
2016-04-16T06:36:38.652Z,15.19
2016-04-16T06:37:38.622Z,15.27
2016-04-16T06:38:38.625Z,15.47
2016-04-16T06:39:38.627Z,15.35
2016-04-16T06:40:38.646Z,15.41
2016-04-16T06:41:38.665Z,15.34
2016-04-16T06:42:38.652Z,15.36
2016-04-16T06:43:38.639Z,15.36
2016-04-16T06:44:38.657Z,15.34
2016-04-16T06:45:38.644Z,15.47
2016-04-16T06:46:38.724Z,15.41
2016-04-16T06:47:38.649Z,15.51
2016-04-16T06:48:38.668Z,15.49
2016-04-16T06:49:38.529Z,15.44
2016-04-16T06:50:38.657Z,15.38
2016-04-16T06:51:38.660Z,15.39
2016-04-16T06:52:38.648Z,15.29
2016-04-16T06:53:38.681Z,15.31
2016-04-16T06:54:38.684Z,15.32
2016-04-16T06:55:38.687Z,15.39
2016-04-16T06:56:38.767Z,15.49
2016-04-16T06:57:38.692Z,15.51
2016-04-16T06:58:39.476Z,15.56
2016-04-16T06:59:38.666Z,15.62
2016-04-16T07:00:38.684Z,15.76
2016-04-16T07:01:38.672Z,15.92
2016-04-16T07:02:38.674Z,15.96
2016-04-16T07:03:38.677Z,16.08
2016-04-16T07:04:38.695Z,16.08
2016-04-16T07:06:39.466Z,16.17
2016-04-16T07:07:39.453Z,16.08
2016-04-16T07:08:39.799Z,16.09
2016-04-16T07:09:39.490Z,16.08
2016-04-16T07:10:39.507Z,16.21
2016-04-16T07:11:38.714Z,16.39
2016-04-16T07:12:39.124Z,16.56
2016-04-16T07:13:38.906Z,16.7
2016-04-16T07:14:38.707Z,16.88
2016-04-16T07:15:40.006Z,17.12
2016-04-16T07:16:40.212Z,17.41
2016-04-16T07:17:39.605Z,17.62
2016-04-16T07:18:38.732Z,17.78
2016-04-16T07:19:39.501Z,18.11
2016-04-16T07:20:39.144Z,18.3
2016-04-16T07:21:38.740Z,18.36
2016-04-16T07:22:38.743Z,18.57
2016-04-16T07:23:38.745Z,18.88
2016-04-16T07:24:38.889Z,19.04
2016-04-16T07:25:38.751Z,19.04
2016-04-16T07:26:38.770Z,19.08
2016-04-16T07:27:38.788Z,19.11
2016-04-16T07:28:38.806Z,19.13
2016-04-16T07:29:38.794Z,19.02
2016-04-16T07:30:38.797Z,18.92
2016-04-16T07:31:38.800Z,19.07
2016-04-16T07:32:38.833Z,19.04
2016-04-16T07:33:38.820Z,18.99
2016-04-16T07:34:38.838Z,19.16
2016-04-16T07:35:38.856Z,19.31
2016-04-16T07:36:38.859Z,19.51
2016-04-16T07:37:38.846Z,19.69
2016-04-16T07:38:38.849Z,19.81
2016-04-16T07:39:38.866Z,19.86
2016-04-16T07:40:38.901Z,19.84
2016-04-16T07:41:38.889Z,19.87
2016-04-16T07:42:38.890Z,19.83
2016-04-16T07:43:38.893Z,19.96
2016-04-16T07:44:38.896Z,20.02
2016-04-16T07:45:38.915Z,20.08
2016-04-16T07:46:38.918Z,20.29
2016-04-16T07:47:38.936Z,20.29
2016-04-16T07:48:38.923Z,20.42
2016-04-16T07:49:38.957Z,20.39
2016-04-16T07:50:38.943Z,20.58
2016-04-16T07:51:38.946Z,20.58
2016-04-16T07:52:38.965Z,20.58
2016-04-16T07:53:38.968Z,20.5
2016-04-16T07:54:38.970Z,20.42
2016-04-16T07:55:38.989Z,20.33
2016-04-16T07:56:39.007Z,20.28
2016-04-16T07:57:39.010Z,20.18
2016-04-16T07:58:39.011Z,20.05
2016-04-16T07:59:39.030Z,19.94
2016-04-16T08:00:39.018Z,19.83
2016-04-16T08:01:39.036Z,19.86
2016-04-16T08:02:39.053Z,19.86
2016-04-16T08:03:39.056Z,19.95
2016-04-16T08:04:39.059Z,20.06
2016-04-16T08:05:39.078Z,19.95
2016-04-16T08:06:39.080Z,20.03
2016-04-16T08:07:39.114Z,20.05
2016-04-16T08:08:39.086Z,20.06
2016-04-16T08:09:39.105Z,20.1
2016-04-16T08:10:39.122Z,20.03
2016-04-16T08:11:39.125Z,20.05
2016-04-16T08:12:39.112Z,20.11
2016-04-16T08:13:39.130Z,20.28
2016-04-16T08:14:39.133Z,20.21
2016-04-16T08:15:54.073Z,20.29
2016-04-16T08:16:39.389Z,20.32
2016-04-16T08:17:39.162Z,20.29
2016-04-16T08:18:39.196Z,20.35
2016-04-16T08:19:39.293Z,20.31
2016-04-16T08:20:39.185Z,20.39
2016-04-16T08:21:39.281Z,20.42
2016-04-16T08:22:39.176Z,20.41
2016-04-16T08:23:39.193Z,20.33
2016-04-16T08:24:39.400Z,20.24
2016-04-16T08:25:41.230Z,20.18
2016-04-16T08:26:39.280Z,20.21
2016-04-16T08:28:39.347Z,20.17
2016-04-16T08:29:39.928Z,20.11
2016-04-16T08:30:39.291Z,20.08
2016-04-16T08:31:39.700Z,19.91
2016-04-16T08:32:39.296Z,19.83
2016-04-16T08:33:39.267Z,19.84
2016-04-16T08:34:41.442Z,19.71
2016-04-16T08:35:40.929Z,19.48
2016-04-16T08:36:39.994Z,19.36
2016-04-16T08:37:39.278Z,19.28
2016-04-16T08:38:39.280Z,19.16
2016-04-16T08:39:39.299Z,19
2016-04-16T08:40:39.505Z,18.99
2016-04-16T08:41:39.304Z,18.91
2016-04-16T08:42:39.323Z,18.8
2016-04-16T08:43:39.310Z,18.87
2016-04-16T08:44:39.313Z,18.81
2016-04-16T08:45:39.316Z,18.67
2016-04-16T08:46:39.318Z,18.44
2016-04-16T08:47:39.305Z,18.41
2016-04-16T08:48:39.307Z,18.37
2016-04-16T08:49:39.310Z,18.27
2016-04-16T08:50:39.329Z,18.17
2016-04-16T08:51:39.363Z,18.11
2016-04-16T08:52:39.334Z,18.02
2016-04-16T08:53:39.353Z,17.96
2016-04-16T08:54:39.340Z,17.9
2016-04-16T08:55:39.342Z,17.82
2016-04-16T08:56:39.345Z,17.74
2016-04-16T08:57:39.331Z,17.79
2016-04-16T08:58:39.381Z,17.68
2016-04-16T08:59:39.352Z,17.59
2016-04-16T09:00:39.356Z,17.51
2016-04-16T09:01:39.358Z,17.41
2016-04-16T09:02:39.345Z,17.38
2016-04-16T09:03:39.395Z,17.3
2016-04-16T09:04:39.366Z,17.31
2016-04-16T09:05:39.385Z,17.19
2016-04-16T09:06:39.356Z,17.16
2016-04-16T09:07:39.391Z,17.14
2016-04-16T09:08:39.377Z,17.12
2016-04-16T09:09:39.364Z,17.06
2016-04-16T09:10:39.382Z,16.97
2016-04-16T09:11:39.369Z,17
2016-04-16T09:12:39.372Z,17
2016-04-16T09:13:39.359Z,16.94
2016-04-16T09:14:39.393Z,16.97
2016-04-16T09:15:39.380Z,16.83
2016-04-16T09:16:39.383Z,16.71
2016-04-16T09:17:39.386Z,16.6
2016-04-16T09:18:39.372Z,16.57
2016-04-16T09:19:39.406Z,16.45
2016-04-16T09:20:39.393Z,16.35
2016-04-16T09:21:39.599Z,16.24
2016-04-16T09:22:39.383Z,16.3
2016-04-16T09:23:39.387Z,16.15
2016-04-16T09:24:39.373Z,16.09
2016-04-16T09:25:39.407Z,16.08
2016-04-16T09:26:39.378Z,16.3
2016-04-16T09:27:39.397Z,16.35
2016-04-16T09:28:39.400Z,16.45
2016-04-16T09:29:39.403Z,16.63
2016-04-16T09:30:39.390Z,16.56
2016-04-16T09:31:39.392Z,16.66
2016-04-16T09:32:39.395Z,16.7
2016-04-16T09:33:39.397Z,16.79
2016-04-16T09:34:40.400Z,16.76
2016-04-16T09:35:39.652Z,16.97
2016-04-16T09:36:40.811Z,17.07
2016-04-16T09:37:53.627Z,17.11
2016-04-16T09:38:39.802Z,17.12
2016-04-16T09:39:39.398Z,17.22
2016-04-16T09:40:39.400Z,17.31
2016-04-16T09:41:39.403Z,17.34
2016-04-16T09:42:39.499Z,17.4
2016-04-16T09:43:40.643Z,17.49
2016-04-16T09:44:41.160Z,17.49
2016-04-16T09:45:40.476Z,17.52
2016-04-16T09:46:39.573Z,17.52
2016-04-16T09:47:39.904Z,17.38
2016-04-16T09:48:39.843Z,17.4
2016-04-16T09:49:40.034Z,17.43
2016-04-16T09:50:39.427Z,17.38
2016-04-16T09:51:39.196Z,17.4
2016-04-16T09:52:39.433Z,17.31
2016-04-16T09:53:39.420Z,17.3
2016-04-16T09:54:39.423Z,17.19
2016-04-16T09:55:39.972Z,17.15
2016-04-16T09:56:40.381Z,17.18
2016-04-16T09:57:40.118Z,17.07
2016-04-16T09:58:39.792Z,16.97
2016-04-16T09:59:39.436Z,16.96
2016-04-16T10:00:39.422Z,16.82
2016-04-16T10:01:39.426Z,16.78
2016-04-16T10:02:39.429Z,16.68
2016-04-16T10:03:39.431Z,16.56
2016-04-16T10:04:39.449Z,16.56
2016-04-16T10:05:39.452Z,16.46
2016-04-16T10:06:39.455Z,16.38
2016-04-16T10:07:39.442Z,16.3
2016-04-16T10:08:39.461Z,16.14
2016-04-16T10:09:39.432Z,16.01
2016-04-16T10:10:39.450Z,16.11
2016-04-16T10:11:39.453Z,16.01
2016-04-16T10:12:39.455Z,15.94
2016-04-16T10:13:39.458Z,15.9
2016-04-16T10:14:39.446Z,15.87
2016-04-16T10:15:39.308Z,15.84
2016-04-16T10:16:39.466Z,15.74
2016-04-16T10:17:39.454Z,15.72
2016-04-16T10:18:39.440Z,15.67
2016-04-16T10:19:39.443Z,15.71
2016-04-16T10:20:39.445Z,15.71
2016-04-16T10:21:39.448Z,15.9
2016-04-16T10:22:39.467Z,15.94
2016-04-16T10:23:39.454Z,15.96
2016-04-16T10:24:39.457Z,16.05
2016-04-16T10:25:39.459Z,16.12
2016-04-16T10:26:39.462Z,16.25
2016-04-16T10:27:39.464Z,16.24
2016-04-16T10:28:39.451Z,16.24
2016-04-16T10:29:39.469Z,16.33
2016-04-16T10:30:39.456Z,16.43
2016-04-16T10:31:39.459Z,16.45
2016-04-16T10:32:39.478Z,16.42
2016-04-16T10:33:39.464Z,16.46
2016-04-16T10:34:39.452Z,16.46
2016-04-16T10:35:39.455Z,16.53
2016-04-16T10:36:39.317Z,16.57
2016-04-16T10:37:39.461Z,16.57
2016-04-16T10:38:39.478Z,16.56
2016-04-16T10:39:39.466Z,16.7
2016-04-16T10:40:39.483Z,16.76
2016-04-16T10:41:39.471Z,16.73
2016-04-16T10:42:39.474Z,16.73
2016-04-16T10:43:39.492Z,16.75
2016-04-16T10:44:39.479Z,16.83
2016-04-16T10:45:39.466Z,16.88
2016-04-16T10:46:39.469Z,16.83
2016-04-16T10:47:39.471Z,16.96
2016-04-16T10:48:39.458Z,17.04
2016-04-16T10:49:39.476Z,17.14
2016-04-16T10:50:39.495Z,17.26
2016-04-16T10:51:39.465Z,17.3
2016-04-16T10:52:39.484Z,17.38
2016-04-16T10:53:40.253Z,17.54
2016-04-16T10:54:39.490Z,17.55
2016-04-16T10:55:39.476Z,17.7
2016-04-16T10:56:39.495Z,17.87
2016-04-16T10:57:39.482Z,17.79
2016-04-16T10:58:39.751Z,17.87
2016-04-16T10:59:39.488Z,17.97
2016-04-16T11:00:39.491Z,17.87
2016-04-16T11:01:39.478Z,17.87
2016-04-16T11:02:42.200Z,17.93
2016-04-16T11:03:42.811Z,17.84
2016-04-16T11:04:40.501Z,17.84
2016-04-16T11:05:39.347Z,17.92
2016-04-16T11:06:54.741Z,18.02
2016-04-16T11:07:39.603Z,18.07
2016-04-16T11:08:39.512Z,17.96
2016-04-16T11:09:39.515Z,17.92
2016-04-16T11:10:39.502Z,17.92
2016-04-16T11:11:41.458Z,17.9
2016-04-16T11:12:40.710Z,17.9
2016-04-16T11:13:39.588Z,17.86
2016-04-16T11:14:40.418Z,17.81
2016-04-16T11:15:40.155Z,17.86
2016-04-16T11:16:40.221Z,17.89
2016-04-16T11:17:39.536Z,17.75
2016-04-16T11:18:39.773Z,17.78
2016-04-16T11:19:39.729Z,17.71
2016-04-16T11:20:39.560Z,17.66
2016-04-16T11:21:39.547Z,17.63
2016-04-16T11:22:39.518Z,17.56
2016-04-16T11:23:39.552Z,17.56
2016-04-16T11:24:39.540Z,17.62
2016-04-16T11:25:39.557Z,17.49
2016-04-16T11:26:39.529Z,17.48
2016-04-16T11:27:39.548Z,17.4
2016-04-16T11:28:39.550Z,17.43
2016-04-16T11:29:39.553Z,17.26
2016-04-16T11:30:39.555Z,17.16
2016-04-16T11:31:39.559Z,17.07
2016-04-16T11:32:39.561Z,16.94
2016-04-16T11:33:39.548Z,16.86
2016-04-16T11:34:39.567Z,16.79
2016-04-16T11:35:39.553Z,16.68
2016-04-16T11:36:39.572Z,16.66
2016-04-16T11:37:39.559Z,16.71
2016-04-16T11:38:39.592Z,16.71
2016-04-16T11:39:39.564Z,16.71
2016-04-16T11:40:39.567Z,16.75
2016-04-16T11:41:39.554Z,16.73
2016-04-16T11:42:39.572Z,16.67
2016-04-16T11:43:39.575Z,16.57
2016-04-16T11:44:39.577Z,16.7
2016-04-16T11:45:39.580Z,16.71
2016-04-16T11:46:39.583Z,16.68
2016-04-16T11:47:39.570Z,16.75
2016-04-16T11:48:39.573Z,16.81
2016-04-16T11:49:39.576Z,16.81
2016-04-16T11:50:39.637Z,16.75
2016-04-16T11:51:39.669Z,16.75
2016-04-16T11:52:39.716Z,16.85
2016-04-16T11:53:39.746Z,16.82
2016-04-16T11:54:39.809Z,16.83
2016-04-16T11:55:39.813Z,17.01
2016-04-16T11:56:39.831Z,17.03
2016-04-16T11:57:39.865Z,17.08
2016-04-16T11:58:39.868Z,17.12
2016-04-16T11:59:39.870Z,17.12
2016-04-16T12:00:39.894Z,17.16
2016-04-16T12:01:39.920Z,17.18
2016-04-16T12:02:39.912Z,17.15
2016-04-16T12:03:39.920Z,17.23
2016-04-16T12:04:39.929Z,17.11
2016-04-16T12:05:39.933Z,17.15
2016-04-16T12:06:39.938Z,17.25
2016-04-16T12:07:39.944Z,17.3
2016-04-16T12:08:39.948Z,17.26
2016-04-16T12:09:39.954Z,17.28
2016-04-16T12:10:39.941Z,17.3
2016-04-16T12:11:39.945Z,17.4
2016-04-16T12:12:40.151Z,17.41
2016-04-16T12:13:40.358Z,17.54
2016-04-16T12:14:40.393Z,17.54
2016-04-16T12:15:40.302Z,17.55
2016-04-16T12:16:40.274Z,17.54
2016-04-16T12:17:39.981Z,17.37
2016-04-16T12:18:39.967Z,17.23
2016-04-16T12:19:39.971Z,17.23
2016-04-16T12:20:40.083Z,17.18
2016-04-16T12:21:41.633Z,17.14
2016-04-16T12:22:41.244Z,17.18
2016-04-16T12:23:41.778Z,17.16
2016-04-16T12:24:40.156Z,17.06
2016-04-16T12:25:40.472Z,17.11
2016-04-16T12:26:40.005Z,16.93
2016-04-16T12:27:40.492Z,16.89
2016-04-16T12:28:40.261Z,16.89
2016-04-16T12:29:40.107Z,16.88
2016-04-16T12:30:40.485Z,16.89
2016-04-16T12:31:42.456Z,16.89
2016-04-16T12:32:40.569Z,16.78
2016-04-16T12:33:41.040Z,16.83
2016-04-16T12:34:40.557Z,16.83
2016-04-16T12:35:39.983Z,16.83
2016-04-16T12:36:40.313Z,16.78
2016-04-16T12:37:39.988Z,16.68
2016-04-16T12:38:40.007Z,16.73
2016-04-16T12:39:39.993Z,16.75
2016-04-16T12:40:40.012Z,16.7
2016-04-16T12:41:40.015Z,16.73
2016-04-16T12:42:40.017Z,16.71
2016-04-16T12:43:40.004Z,16.73
2016-04-16T12:44:40.007Z,16.85
2016-04-16T12:45:40.009Z,16.81
2016-04-16T12:46:40.012Z,16.83
2016-04-16T12:47:40.014Z,16.81
2016-04-16T12:48:40.018Z,16.71
2016-04-16T12:49:40.004Z,16.71
2016-04-16T12:50:40.007Z,16.83
2016-04-16T12:51:40.026Z,16.81
2016-04-16T12:52:40.216Z,16.86
2016-04-16T12:53:40.015Z,16.85
2016-04-16T12:54:40.002Z,16.88
2016-04-16T12:55:40.020Z,17.04
2016-04-16T12:56:40.008Z,17.08
2016-04-16T12:57:40.025Z,17.12
2016-04-16T12:58:40.013Z,17.28
2016-04-16T12:59:40.016Z,17.38
2016-04-16T13:00:40.019Z,17.46
2016-04-16T13:01:40.005Z,17.49
2016-04-16T13:02:40.024Z,17.59
2016-04-16T13:03:40.026Z,17.71
2016-04-16T13:04:40.029Z,17.78
2016-04-16T13:05:40.032Z,17.81
2016-04-16T13:06:40.019Z,17.9
2016-04-16T13:07:40.443Z,17.95
2016-04-16T13:08:40.040Z,17.95
2016-04-16T13:09:40.043Z,18.07
2016-04-16T13:10:40.029Z,18
2016-04-16T13:11:40.048Z,17.89
2016-04-16T13:12:40.035Z,17.89
2016-04-16T13:13:40.053Z,18.1
2016-04-16T13:14:40.041Z,18.1
2016-04-16T13:15:40.059Z,18.11
2016-04-16T13:16:40.061Z,18.15
2016-04-16T13:17:40.064Z,18.17
2016-04-16T13:18:40.051Z,18.23
2016-04-16T13:19:40.054Z,18.27
2016-04-16T13:20:40.057Z,18.41
2016-04-16T13:21:40.059Z,18.32
2016-04-16T13:22:40.265Z,18.3
2016-04-16T13:23:40.065Z,18.35
2016-04-16T13:24:40.052Z,18.47
2016-04-16T13:25:40.070Z,18.54
2016-04-16T13:26:40.058Z,18.52
2016-04-16T13:27:40.075Z,18.57
2016-04-16T13:28:40.063Z,18.78
2016-04-16T13:29:40.096Z,18.84
2016-04-16T13:30:40.068Z,18.99
2016-04-16T13:31:40.102Z,18.95
2016-04-16T13:32:40.104Z,18.95
2016-04-16T13:33:40.122Z,18.94
2016-04-16T13:34:54.282Z,18.98
2016-04-16T13:35:40.644Z,18.94
2016-04-16T13:36:40.116Z,18.88
2016-04-16T13:37:40.258Z,18.92
2016-04-16T13:38:40.121Z,18.87
2016-04-16T13:39:40.123Z,18.78
2016-04-16T13:40:54.313Z,18.81
2016-04-16T13:41:40.113Z,18.8
2016-04-16T13:42:41.225Z,18.65
2016-04-16T13:43:40.322Z,18.51
2016-04-16T13:44:40.387Z,18.35
2016-04-16T13:45:40.140Z,18.23
2016-04-16T13:46:40.346Z,18.15
2016-04-16T13:47:40.145Z,18.1
2016-04-16T13:48:40.132Z,18.08
2016-04-16T13:49:41.775Z,18.02
2016-04-16T13:50:40.497Z,18.1
2016-04-16T13:51:41.139Z,18.14
2016-04-16T13:52:41.064Z,18.11
2016-04-16T13:53:40.505Z,18.08
2016-04-16T13:54:40.163Z,18.26
2016-04-16T13:55:40.166Z,18.32
2016-04-16T13:56:40.325Z,18.51
2016-04-16T13:57:40.172Z,18.58
2016-04-16T13:58:40.159Z,18.76
2016-04-16T13:59:40.177Z,18.92
2016-04-16T14:00:40.180Z,18.94
2016-04-16T14:01:40.183Z,18.92
2016-04-16T14:02:40.185Z,18.94
2016-04-16T14:03:40.172Z,18.92
2016-04-16T14:04:40.190Z,18.78
2016-04-16T14:05:40.193Z,18.8
2016-04-16T14:06:40.196Z,18.81
2016-04-16T14:07:40.089Z,18.78
2016-04-16T14:08:40.185Z,18.9
2016-04-16T14:09:40.204Z,18.9
2016-04-16T14:10:40.207Z,18.8
2016-04-16T14:11:40.224Z,18.8
2016-04-16T14:12:40.212Z,18.81
2016-04-16T14:13:40.214Z,18.7
2016-04-16T14:14:40.232Z,18.65
2016-04-16T14:15:40.235Z,18.7
2016-04-16T14:16:40.223Z,18.5
2016-04-16T14:17:40.240Z,18.5
2016-04-16T14:18:40.243Z,18.54
2016-04-16T14:19:40.231Z,18.44
2016-04-16T14:20:40.233Z,18.52
2016-04-16T14:21:40.251Z,18.6
2016-04-16T14:22:40.348Z,18.78
2016-04-16T14:23:40.257Z,18.84
2016-04-16T14:24:40.244Z,18.9
2016-04-16T14:25:40.262Z,18.95
2016-04-16T14:26:40.250Z,18.94
2016-04-16T14:27:40.284Z,18.99
2016-04-16T14:28:40.256Z,19.04
2016-04-16T14:29:40.289Z,19.07
2016-04-16T14:30:40.261Z,18.99
2016-04-16T14:31:40.278Z,19.04
2016-04-16T14:32:40.266Z,19
2016-04-16T14:33:40.269Z,19.06
2016-04-16T14:34:40.286Z,19.07
2016-04-16T14:35:40.289Z,19.04
2016-04-16T14:36:40.292Z,19.02
2016-04-16T14:37:40.295Z,18.99
2016-04-16T14:38:40.297Z,18.98
2016-04-16T14:39:40.299Z,18.99
2016-04-16T14:40:40.302Z,18.92
2016-04-16T14:41:40.305Z,18.91
2016-04-16T14:42:40.308Z,18.8
2016-04-16T14:43:40.310Z,18.6
2016-04-16T14:44:40.313Z,18.35
2016-04-16T14:45:40.316Z,18.15
2016-04-16T14:46:40.319Z,17.84
2016-04-16T14:47:40.321Z,17.68
2016-04-16T14:48:40.324Z,17.31
2016-04-16T14:49:40.327Z,17.15
2016-04-16T14:50:41.892Z,17.06
2016-04-16T14:51:41.192Z,16.81
2016-04-16T14:52:40.350Z,16.75
2016-04-16T14:53:40.775Z,16.53
2016-04-16T14:54:40.903Z,16.46
2016-04-16T14:55:40.328Z,16.24
2016-04-16T14:56:40.362Z,16.24
2016-04-16T14:57:40.334Z,16.21
2016-04-16T14:58:40.805Z,16.11
2016-04-16T14:59:41.307Z,16
2016-04-16T15:00:40.856Z,15.96
2016-04-16T15:01:41.563Z,15.93
2016-04-16T15:02:41.784Z,15.94
2016-04-16T15:03:40.365Z,15.9
2016-04-16T15:04:40.352Z,15.9
2016-04-16T15:05:40.355Z,15.74
2016-04-16T15:06:40.452Z,15.84
2016-04-16T15:07:40.360Z,15.75
2016-04-16T15:08:40.363Z,15.68
2016-04-16T15:09:41.225Z,15.75
2016-04-16T15:10:41.477Z,15.65
2016-04-16T15:11:40.949Z,15.67
2016-04-16T15:12:40.358Z,15.75
2016-04-16T15:13:40.642Z,15.78
2016-04-16T15:14:40.707Z,15.72
2016-04-16T15:15:40.366Z,15.72
2016-04-16T15:16:40.368Z,15.65
2016-04-16T15:17:40.340Z,15.67
2016-04-16T15:18:40.343Z,15.62
2016-04-16T15:19:40.345Z,15.69
2016-04-16T15:20:40.348Z,15.67
2016-04-16T15:21:40.334Z,15.6
2016-04-16T15:22:40.354Z,15.65